Time;durP1;ratioP1;P1;durP2;ratioP2;P2;SDS_P1;SDS_P2;PMS_P1;PMS_P2;Temp;Humidity;BMP_temperature;BMP_pressure;BME280_temperature;BME280_humidity;BME280_pressure;Samples;Min_cycle;Max_cycle;Signal;HPM_P1;HPM_P2
2023/01/26 00:00:01;0.00;0.00;0.62;0.00;0.00;0.62;4.10;2.87;;;20.70;24.10;;;;;;2260451;61;20870;-66
2023/01/26 00:02:45;0.00;0.00;0.62;0.00;0.00;0.62;3.20;2.37;;;20.70;24.10;;;;;;2257574;61;20356;-65
2023/01/26 00:05:30;0.00;0.00;0.62;0.00;0.00;0.62;3.07;2.20;;;20.70;24.10;;;;;;2259378;61;20438;-66
2023/01/26 00:08:16;0.00;0.00;0.62;0.00;0.00;0.62;3.80;2.43;;;20.70;24.10;;;;;;2260204;61;20446;-64
2023/01/26 00:11:03;0.00;0.00;0.62;0.00;0.00;0.62;3.90;2.40;;;20.80;24.10;;;;;;2260658;61;20905;-66
2023/01/26 00:13:49;0.00;0.00;0.62;0.00;0.00;0.62;3.73;2.67;;;20.70;24.10;;;;;;2257284;61;20503;-65
2023/01/26 00:16:34;0.00;0.00;0.62;0.00;0.00;0.62;3.17;2.30;;;20.70;24.10;;;;;;2257149;61;20393;-63
2023/01/26 00:19:19;0.00;0.00;0.62;0.00;0.00;0.62;4.40;2.80;;;20.70;24.10;;;;;;2259024;61;20781;-66
2023/01/26 00:22:04;0.00;0.00;0.62;0.00;0.00;0.62;4.30;2.80;;;20.70;24.20;;;;;;2260482;61;21158;-66
2023/01/26 00:24:50;0.00;0.00;0.62;0.00;0.00;0.62;2.83;2.53;;;20.70;24.10;;;;;;2260555;61;20947;-67
2023/01/26 00:27:35;0.00;0.00;0.62;0.00;0.00;0.62;4.27;3.00;;;20.70;24.20;;;;;;2259048;61;20426;-66
2023/01/26 00:30:20;0.00;0.00;0.62;0.00;0.00;0.62;4.07;3.40;;;20.70;24.20;;;;;;2260854;61;20389;-64
2023/01/26 00:33:05;0.00;0.00;0.62;0.00;0.00;0.62;4.57;2.90;;;20.70;24.20;;;;;;2261036;61;20443;-65
2023/01/26 00:35:54;0.00;0.00;0.62;0.00;0.00;0.62;3.57;2.83;;;20.70;24.20;;;;;;2256945;61;20423;-65
2023/01/26 00:38:40;0.00;0.00;0.62;0.00;0.00;0.62;4.80;3.13;;;20.70;24.10;;;;;;2257601;61;20365;-66
2023/01/26 00:44:31;0.00;0.00;0.62;0.00;0.00;0.62;4.60;2.87;;;20.70;24.20;;;;;;2260476;61;20859;-65
2023/01/26 00:47:17;0.00;0.00;0.62;0.00;0.00;0.62;3.93;2.73;;;20.80;24.20;;;;;;2260352;61;20427;-65
2023/01/26 00:50:02;0.00;0.00;0.62;0.00;0.00;0.62;4.80;3.47;;;20.80;24.20;;;;;;2259300;61;20381;-64
2023/01/26 00:52:46;0.00;0.00;0.62;0.00;0.00;0.62;3.73;2.83;;;20.80;24.20;;;;;;2260904;61;20401;-66
2023/01/26 00:55:31;0.00;0.00;0.62;0.00;0.00;0.62;4.00;3.00;;;20.80;24.80;;;;;;2259905;61;20384;-66
2023/01/26 00:58:19;0.00;0.00;0.62;0.00;0.00;0.62;4.20;3.20;;;20.80;24.20;;;;;;2257243;61;20442;-67
2023/01/26 01:01:04;0.00;0.00;0.62;0.00;0.00;0.62;3.63;2.70;;;20.80;24.20;;;;;;2257781;61;20408;-66
2023/01/26 01:03:50;0.00;0.00;0.62;0.00;0.00;0.62;3.40;2.73;;;20.80;24.20;;;;;;2259070;61;20447;-66
2023/01/26 01:06:35;0.00;0.00;0.62;0.00;0.00;0.62;3.80;2.83;;;20.80;24.20;;;;;;2257133;61;20388;-66
2023/01/26 01:09:20;0.00;0.00;0.62;0.00;0.00;0.62;3.70;3.00;;;20.80;24.20;;;;;;2260358;61;20960;-65
2023/01/26 01:12:07;0.00;0.00;0.62;0.00;0.00;0.62;3.43;2.73;;;20.80;24.20;;;;;;2259582;61;20369;-67
2023/01/26 01:14:53;0.00;0.00;0.62;0.00;0.00;0.62;4.67;2.90;;;20.80;24.20;;;;;;2258255;61;20385;-64
2023/01/26 01:17:38;0.00;0.00;0.62;0.00;0.00;0.62;4.80;3.80;;;20.80;24.20;;;;;;2260019;61;20749;-65
2023/01/26 01:20:22;0.00;0.00;0.62;0.00;0.00;0.62;3.03;2.30;;;20.80;24.20;;;;;;2258825;61;20391;-65
2023/01/26 01:23:07;0.00;0.00;0.62;0.00;0.00;0.62;4.00;3.30;;;20.80;24.20;;;;;;2258783;61;20800;-65
2023/01/26 01:25:56;0.00;0.00;0.62;0.00;0.00;0.62;4.40;3.80;;;20.80;24.20;;;;;;2255684;61;20535;-65
2023/01/26 01:28:42;0.00;0.00;0.62;0.00;0.00;0.62;4.77;3.43;;;20.80;24.30;;;;;;2259454;61;20392;-63
2023/01/26 01:31:28;0.00;0.00;0.62;0.00;0.00;0.62;3.70;2.50;;;20.80;24.40;;;;;;2255534;61;20618;-63
2023/01/26 01:34:13;0.00;0.00;0.62;0.00;0.00;0.62;4.70;3.40;;;20.80;24.50;;;;;;2258180;61;20397;-63
2023/01/26 01:36:58;0.00;0.00;0.62;0.00;0.00;0.62;4.20;2.90;;;20.80;24.50;;;;;;2254863;61;20411;-61
2023/01/26 01:39:42;0.00;0.00;0.62;0.00;0.00;0.62;4.50;3.23;;;20.80;24.50;;;;;;2255943;61;20496;-62
2023/01/26 01:42:27;0.00;0.00;0.62;0.00;0.00;0.62;5.30;3.40;;;20.80;24.50;;;;;;2258560;61;20361;-64
2023/01/26 01:45:42;0.00;0.00;0.62;0.00;0.00;0.62;4.63;3.47;;;20.80;24.40;;;;;;2258261;61;20500;-66
2023/01/26 01:48:36;0.00;0.00;0.62;0.00;0.00;0.62;6.37;3.97;;;20.80;24.50;;;;;;2254585;61;20373;-56
2023/01/26 01:51:32;0.00;0.00;0.62;0.00;0.00;0.62;6.90;4.90;;;20.80;24.50;;;;;;2256883;61;20392;-63
2023/01/26 01:54:27;0.00;0.00;0.62;0.00;0.00;0.62;7.70;5.93;;;20.80;24.40;;;;;;2260399;61;20891;-60
2023/01/26 01:57:17;0.00;0.00;0.62;0.00;0.00;0.62;10.27;7.20;;;20.80;24.30;;;;;;2256411;61;20889;-60
2023/01/26 02:00:06;0.00;0.00;0.62;0.00;0.00;0.62;11.03;7.70;;;20.80;24.10;;;;;;2259517;61;20353;-62
2023/01/26 02:03:10;0.00;0.00;0.62;0.00;0.00;0.62;10.77;7.80;;;20.80;24.00;;;;;;2258942;61;20361;-60
2023/01/26 02:06:03;0.00;0.00;0.62;0.00;0.00;0.62;12.67;9.83;;;20.80;24.00;;;;;;2256746;61;20385;-60
2023/01/26 02:08:52;0.00;0.00;0.62;0.00;0.00;0.62;12.87;8.93;;;20.80;23.90;;;;;;2259941;61;20384;-62
2023/01/26 02:11:43;0.00;0.00;0.62;0.00;0.00;0.62;18.33;11.43;;;20.70;23.70;;;;;;2256319;61;20445;-60
2023/01/26 02:14:28;0.00;0.00;0.62;0.00;0.00;0.62;14.60;10.10;;;20.70;23.60;;;;;;2259348;61;20369;-62
2023/01/26 02:17:13;0.00;0.00;0.62;0.00;0.00;0.62;16.80;12.00;;;20.70;23.50;;;;;;2255836;61;20409;-62
2023/01/26 02:20:04;0.00;0.00;0.62;0.00;0.00;0.62;16.20;11.20;;;20.70;23.40;;;;;;2260213;61;20462;-58
2023/01/26 02:22:59;0.00;0.00;0.62;0.00;0.00;0.62;16.20;11.43;;;20.70;23.40;;;;;;2256081;61;20707;-62
2023/01/26 02:26:11;0.00;0.00;0.62;0.00;0.00;0.62;18.80;11.80;;;20.70;23.40;;;;;;2255927;61;20663;-60
2023/01/26 02:28:56;0.00;0.00;0.62;0.00;0.00;0.62;17.90;12.50;;;20.60;23.30;;;;;;2255897;61;20388;-62
2023/01/26 02:31:41;0.00;0.00;0.62;0.00;0.00;0.62;18.40;12.97;;;20.60;23.10;;;;;;2256270;61;20814;-62
2023/01/26 02:34:27;0.00;0.00;0.62;0.00;0.00;0.62;17.23;13.67;;;20.60;23.20;;;;;;2256285;61;20392;-61
2023/01/26 02:37:14;0.00;0.00;0.62;0.00;0.00;0.62;16.50;13.03;;;20.60;23.00;;;;;;2255691;61;20423;-61
2023/01/26 02:40:04;0.00;0.00;0.62;0.00;0.00;0.62;18.17;13.00;;;20.60;23.00;;;;;;2255786;61;20356;-63
2023/01/26 02:42:53;0.00;0.00;0.62;0.00;0.00;0.62;17.50;12.90;;;20.60;22.90;;;;;;2256324;61;20823;-62
2023/01/26 02:45:39;0.00;0.00;0.62;0.00;0.00;0.62;19.47;14.23;;;20.50;22.80;;;;;;2255990;61;20937;-62
2023/01/26 02:51:29;0.00;0.00;0.62;0.00;0.00;0.62;18.00;13.53;;;20.50;22.80;;;;;;2256029;61;20360;-62
2023/01/26 02:55:21;0.00;0.00;0.62;0.00;0.00;0.62;20.50;13.87;;;20.50;22.80;;;;;;2256450;61;20439;-60
2023/01/26 02:57:19;0.00;0.00;0.62;0.00;0.00;0.62;17.30;12.60;;;20.50;22.80;;;;;;2255918;61;20369;-61
2023/01/26 03:00:09;0.00;0.00;0.62;0.00;0.00;0.62;18.30;13.83;;;20.50;23.30;;;;;;2256928;61;20419;-60
2023/01/26 03:02:57;0.00;0.00;0.62;0.00;0.00;0.62;20.00;13.97;;;20.40;22.70;;;;;;2256061;61;20378;-59
2023/01/26 03:05:44;0.00;0.00;0.62;0.00;0.00;0.62;20.90;14.00;;;20.40;22.70;;;;;;2260150;61;20443;-60
2023/01/26 03:08:28;0.00;0.00;0.62;0.00;0.00;0.62;18.87;13.27;;;20.40;22.70;;;;;;2256743;61;20587;-60
2023/01/26 03:11:13;0.00;0.00;0.62;0.00;0.00;0.62;18.97;13.00;;;20.40;22.70;;;;;;2259966;61;20415;-62
2023/01/26 03:13:58;0.00;0.00;0.62;0.00;0.00;0.62;20.10;14.07;;;20.30;22.60;;;;;;2256024;61;20539;-60
2023/01/26 03:16:44;0.00;0.00;0.62;0.00;0.00;0.62;17.20;13.33;;;20.30;22.60;;;;;;2256054;61;20416;-61
2023/01/26 03:27:25;0.00;0.00;0.62;0.00;0.00;0.62;19.07;13.20;;;20.30;22.60;;;;;;2256329;61;20376;-60
2023/01/26 03:29:00;0.00;0.00;0.62;0.00;0.00;0.62;18.40;14.27;;;20.30;22.60;;;;;;2256053;61;20929;-61
2023/01/26 03:31:46;0.00;0.00;0.62;0.00;0.00;0.62;20.27;14.87;;;20.20;22.60;;;;;;2255986;61;20365;-62
2023/01/26 03:34:32;0.00;0.00;0.62;0.00;0.00;0.62;18.67;14.17;;;20.20;22.60;;;;;;2259662;61;20419;-61
2023/01/26 03:37:21;0.00;0.00;0.62;0.00;0.00;0.62;18.50;13.27;;;20.20;22.60;;;;;;2259025;61;20367;-61
2023/01/26 03:58:45;0.00;0.00;0.62;0.00;0.00;0.62;19.17;13.90;;;20.10;22.60;;;;;;2256412;61;20415;-59
2023/01/26 04:01:31;0.00;0.00;0.62;0.00;0.00;0.62;18.10;13.27;;;20.10;22.60;;;;;;2256407;61;20365;-59
2023/01/26 04:10:26;0.00;0.00;0.62;0.00;0.00;0.62;14.60;11.63;;;20.00;22.50;;;;;;2256900;61;20401;-59
2023/01/26 04:22:29;0.00;0.00;0.62;0.00;0.00;0.62;18.13;12.23;;;19.90;22.50;;;;;;2260222;61;20423;-61
2023/01/26 04:25:28;0.00;0.00;0.62;0.00;0.00;0.62;17.23;12.60;;;19.90;22.60;;;;;;2262718;55;20403;-61
2023/01/26 04:28:15;0.00;0.00;0.62;0.00;0.00;0.62;18.90;13.10;;;19.90;22.60;;;;;;2260805;61;20391;-61
2023/01/26 04:31:03;0.00;0.00;0.62;0.00;0.00;0.62;18.87;14.00;;;19.90;22.50;;;;;;2259787;61;20364;-62
2023/01/26 04:33:49;0.00;0.00;0.62;0.00;0.00;0.62;15.50;11.67;;;19.90;22.60;;;;;;2260680;61;20372;-59
2023/01/26 04:36:34;0.00;0.00;0.62;0.00;0.00;0.62;13.90;11.90;;;19.90;22.60;;;;;;2263580;61;20379;-60
2023/01/26 04:39:20;0.00;0.00;0.62;0.00;0.00;0.62;18.33;13.07;;;19.90;22.60;;;;;;2264023;61;20360;-61
2023/01/26 04:42:09;0.00;0.00;0.62;0.00;0.00;0.62;15.20;12.57;;;19.90;22.60;;;;;;2264064;61;20364;-59
2023/01/26 04:44:54;0.00;0.00;0.62;0.00;0.00;0.62;17.83;13.20;;;19.90;22.60;;;;;;2264404;61;20802;-61
2023/01/26 04:47:39;0.00;0.00;0.62;0.00;0.00;0.62;17.80;12.70;;;19.80;22.50;;;;;;2264220;61;20355;-60
2023/01/26 04:50:24;0.00;0.00;0.62;0.00;0.00;0.62;17.03;12.70;;;19.80;22.50;;;;;;2264061;61;20383;-59
2023/01/26 04:53:09;0.00;0.00;0.62;0.00;0.00;0.62;16.07;12.40;;;19.80;22.50;;;;;;2263919;61;20374;-60
2023/01/26 04:55:56;0.00;0.00;0.62;0.00;0.00;0.62;18.80;13.73;;;19.80;22.50;;;;;;2264421;61;20405;-58
2023/01/26 04:58:41;0.00;0.00;0.62;0.00;0.00;0.62;18.63;13.10;;;19.80;22.50;;;;;;2267355;61;20412;-59
2023/01/26 05:01:26;0.00;0.00;0.62;0.00;0.00;0.62;18.67;13.53;;;19.80;22.50;;;;;;2264071;61;20603;-59
2023/01/26 05:04:11;0.00;0.00;0.62;0.00;0.00;0.62;17.77;13.10;;;19.80;22.50;;;;;;2264399;61;20363;-57
2023/01/26 05:06:59;0.00;0.00;0.62;0.00;0.00;0.62;18.40;13.37;;;19.80;22.50;;;;;;2268078;61;20359;-58
2023/01/26 05:09:45;0.00;0.00;0.62;0.00;0.00;0.62;16.50;12.10;;;19.70;22.40;;;;;;2265004;61;20479;-58
2023/01/26 05:12:43;0.00;0.00;0.62;0.00;0.00;0.62;17.93;13.30;;;19.70;22.40;;;;;;2264505;61;20374;-59
2023/01/26 05:15:43;0.00;0.00;0.62;0.00;0.00;0.62;16.27;12.93;;;19.70;22.40;;;;;;2264337;61;20383;-58
2023/01/26 05:18:58;0.00;0.00;0.62;0.00;0.00;0.62;18.67;13.10;;;19.70;22.40;;;;;;2264469;61;20355;-60
2023/01/26 05:22:03;0.00;0.00;0.62;0.00;0.00;0.62;17.80;11.70;;;19.70;22.50;;;;;;2258636;61;20364;-61
2023/01/26 05:24:51;0.00;0.00;0.62;0.00;0.00;0.62;16.20;12.83;;;19.70;22.50;;;;;;2264999;61;20387;-63
2023/01/26 05:27:51;0.00;0.00;0.62;0.00;0.00;0.62;14.93;12.30;;;19.70;22.50;;;;;;2264497;61;20371;-61
2023/01/26 05:30:36;0.00;0.00;0.62;0.00;0.00;0.62;13.67;11.07;;;19.60;22.40;;;;;;2264678;61;20509;-58
2023/01/26 05:33:22;0.00;0.00;0.62;0.00;0.00;0.62;15.97;11.97;;;19.60;22.40;;;;;;2264806;61;20359;-61
2023/01/26 05:36:08;0.00;0.00;0.62;0.00;0.00;0.62;16.77;12.67;;;19.60;22.40;;;;;;2264570;61;20951;-59
2023/01/26 05:38:53;0.00;0.00;0.62;0.00;0.00;0.62;17.43;14.00;;;19.60;22.40;;;;;;2264597;61;20359;-60
2023/01/26 05:41:41;0.00;0.00;0.62;0.00;0.00;0.62;14.30;11.77;;;19.60;22.40;;;;;;2264513;61;20359;-62
2023/01/26 05:44:48;0.00;0.00;0.62;0.00;0.00;0.62;15.53;12.00;;;19.60;22.40;;;;;;2263993;61;20432;-59
2023/01/26 05:47:34;0.00;0.00;0.62;0.00;0.00;0.62;16.97;12.37;;;19.60;22.50;;;;;;2264530;61;20542;-58
2023/01/26 05:50:19;0.00;0.00;0.62;0.00;0.00;0.62;16.10;13.33;;;19.60;22.40;;;;;;2264607;61;20746;-58
2023/01/26 05:53:24;0.00;0.00;0.62;0.00;0.00;0.62;13.60;10.73;;;19.50;22.40;;;;;;2267446;61;20906;-61
2023/01/26 05:56:09;0.00;0.00;0.62;0.00;0.00;0.62;16.27;12.23;;;19.50;22.40;;;;;;2263780;61;20441;-61
2023/01/26 05:59:00;0.00;0.00;0.62;0.00;0.00;0.62;13.40;11.33;;;19.50;22.40;;;;;;2264743;61;20351;-60
2023/01/26 06:01:46;0.00;0.00;0.62;0.00;0.00;0.62;17.83;13.13;;;19.50;22.40;;;;;;2264704;61;20374;-61
2023/01/26 06:04:31;0.00;0.00;0.62;0.00;0.00;0.62;15.00;11.13;;;19.50;22.40;;;;;;2264339;61;20363;-60
2023/01/26 06:07:18;0.00;0.00;0.62;0.00;0.00;0.62;14.80;12.37;;;19.50;22.40;;;;;;2263836;61;20421;-58
2023/01/26 06:10:23;0.00;0.00;0.62;0.00;0.00;0.62;14.13;12.10;;;19.50;22.40;;;;;;2267949;61;20378;-61
2023/01/26 06:13:29;0.00;0.00;0.62;0.00;0.00;0.62;14.47;12.00;;;19.40;22.40;;;;;;2258740;61;20359;-59
2023/01/26 06:19:37;0.00;0.00;0.62;0.00;0.00;0.62;15.00;11.60;;;19.40;22.40;;;;;;2257769;61;20400;-60
2023/01/26 06:22:22;0.00;0.00;0.62;0.00;0.00;0.62;16.57;12.13;;;19.40;22.40;;;;;;2255962;61;20369;-60
2023/01/26 06:25:09;0.00;0.00;0.62;0.00;0.00;0.62;15.30;10.90;;;19.30;22.90;;;;;;2256786;61;20411;-59
2023/01/26 06:27:56;0.00;0.00;0.62;0.00;0.00;0.62;15.00;12.10;;;19.30;22.40;;;;;;2256413;61;20899;-63
2023/01/26 06:30:44;0.00;0.00;0.62;0.00;0.00;0.62;15.13;11.67;;;19.30;22.40;;;;;;2256674;61;20365;-60
2023/01/26 06:33:33;0.00;0.00;0.62;0.00;0.00;0.62;14.50;12.23;;;19.30;22.50;;;;;;2259131;61;20365;-61
2023/01/26 06:36:20;0.00;0.00;0.62;0.00;0.00;0.62;18.70;12.10;;;19.30;22.50;;;;;;2259454;61;20381;-61
2023/01/26 06:39:07;0.00;0.00;0.62;0.00;0.00;0.62;13.43;11.07;;;19.30;22.50;;;;;;2257811;61;20416;-61
2023/01/26 06:41:53;0.00;0.00;0.62;0.00;0.00;0.62;15.03;12.27;;;19.30;22.50;;;;;;2257778;61;20765;-61
2023/01/26 06:44:37;0.00;0.00;0.62;0.00;0.00;0.62;13.80;11.00;;;19.20;22.50;;;;;;2256735;61;20360;-63
2023/01/26 06:47:22;0.00;0.00;0.62;0.00;0.00;0.62;13.53;11.50;;;19.20;22.40;;;;;;2256738;61;20362;-58
2023/01/26 06:50:09;0.00;0.00;0.62;0.00;0.00;0.62;15.57;11.57;;;19.20;22.40;;;;;;2256827;61;20436;-61
2023/01/26 06:52:59;0.00;0.00;0.62;0.00;0.00;0.62;16.10;11.93;;;19.20;22.40;;;;;;2259592;61;20905;-61
2023/01/26 06:56:05;0.00;0.00;0.62;0.00;0.00;0.62;15.53;11.80;;;19.20;22.50;;;;;;2256380;61;20384;-60
2023/01/26 06:59:05;0.00;0.00;0.62;0.00;0.00;0.62;12.50;10.43;;;19.20;22.50;;;;;;2256209;61;20365;-64
2023/01/26 07:02:05;0.00;0.00;0.62;0.00;0.00;0.62;15.23;12.10;;;19.20;22.50;;;;;;2257081;61;20369;-61
2023/01/26 07:04:53;0.00;0.00;0.62;0.00;0.00;0.62;12.77;10.70;;;19.20;22.50;;;;;;2259745;61;20388;-59
2023/01/26 07:07:38;0.00;0.00;0.62;0.00;0.00;0.62;14.80;10.73;;;19.20;22.50;;;;;;2259101;61;20391;-60
2023/01/26 07:10:24;0.00;0.00;0.62;0.00;0.00;0.62;13.20;10.63;;;19.10;22.40;;;;;;2259387;61;20408;-59
2023/01/26 07:13:08;0.00;0.00;0.62;0.00;0.00;0.62;13.23;10.80;;;19.10;22.40;;;;;;2260045;61;20401;-59
2023/01/26 07:16:00;0.00;0.00;0.62;0.00;0.00;0.62;17.23;10.70;;;19.10;22.70;;;;;;2260630;61;20408;-59
2023/01/26 07:18:45;0.00;0.00;0.62;0.00;0.00;0.62;13.27;10.97;;;19.20;22.50;;;;;;2260135;61;20377;-61
2023/01/26 07:21:30;0.00;0.00;0.62;0.00;0.00;0.62;14.00;11.43;;;19.10;22.40;;;;;;2259719;61;20881;-58
2023/01/26 07:24:14;0.00;0.00;0.62;0.00;0.00;0.62;13.90;10.27;;;19.10;22.40;;;;;;2260241;61;20909;-61
2023/01/26 07:27:00;0.00;0.00;0.62;0.00;0.00;0.62;13.27;10.40;;;19.10;22.40;;;;;;2260011;61;20397;-61
2023/01/26 07:29:45;0.00;0.00;0.62;0.00;0.00;0.62;11.50;10.30;;;19.10;22.40;;;;;;2259765;61;20385;-59
2023/01/26 07:32:30;0.00;0.00;0.62;0.00;0.00;0.62;13.10;11.17;;;19.10;23.00;;;;;;2259425;61;20719;-61
2023/01/26 07:35:16;0.00;0.00;0.62;0.00;0.00;0.62;14.37;11.73;;;19.10;22.40;;;;;;2260179;61;20442;-61
2023/01/26 07:38:02;0.00;0.00;0.62;0.00;0.00;0.62;12.47;10.50;;;19.10;22.40;;;;;;2259876;61;20482;-57
2023/01/26 07:40:48;0.00;0.00;0.62;0.00;0.00;0.62;12.77;10.67;;;19.10;22.40;;;;;;2260111;61;20630;-63
2023/01/26 07:43:35;0.00;0.00;0.62;0.00;0.00;0.62;12.67;10.27;;;19.10;22.40;;;;;;2259564;61;20384;-61
2023/01/26 07:46:20;0.00;0.00;0.62;0.00;0.00;0.62;12.80;10.80;;;19.10;22.40;;;;;;2259720;61;20430;-58
2023/01/26 07:49:05;0.00;0.00;0.62;0.00;0.00;0.62;13.30;10.73;;;19.10;22.50;;;;;;2259960;61;20377;-59
2023/01/26 07:51:51;0.00;0.00;0.62;0.00;0.00;0.62;12.30;11.00;;;19.00;22.40;;;;;;2259470;61;20365;-61
2023/01/26 07:54:37;0.00;0.00;0.62;0.00;0.00;0.62;12.50;10.43;;;19.00;22.40;;;;;;2259358;61;20412;-61
2023/01/26 07:57:21;0.00;0.00;0.62;0.00;0.00;0.62;14.50;11.17;;;19.00;22.90;;;;;;2259365;61;20431;-61
2023/01/26 08:00:11;0.00;0.00;0.62;0.00;0.00;0.62;13.50;10.70;;;19.00;22.40;;;;;;2260207;61;20415;-57
2023/01/26 08:02:58;0.00;0.00;0.62;0.00;0.00;0.62;13.80;10.63;;;19.00;22.40;;;;;;2258669;61;20419;-57
2023/01/26 08:05:43;0.00;0.00;0.62;0.00;0.00;0.62;12.20;10.90;;;19.00;22.40;;;;;;2258494;61;20384;-58
2023/01/26 08:08:27;0.00;0.00;0.62;0.00;0.00;0.62;12.37;10.63;;;19.00;22.40;;;;;;2259465;61;20388;-61
2023/01/26 08:11:12;0.00;0.00;0.62;0.00;0.00;0.62;14.60;11.10;;;19.00;22.40;;;;;;2260052;61;20361;-62
2023/01/26 08:13:57;0.00;0.00;0.62;0.00;0.00;0.62;14.70;12.03;;;19.00;22.40;;;;;;2259713;61;20407;-61
2023/01/26 08:16:44;0.00;0.00;0.62;0.00;0.00;0.62;11.97;10.43;;;19.00;22.40;;;;;;2259345;61;20794;-70
2023/01/26 08:19:28;0.00;0.00;0.62;0.00;0.00;0.62;14.80;10.70;;;19.00;22.40;;;;;;2259439;61;20411;-60
2023/01/26 08:22:13;0.00;0.00;0.62;0.00;0.00;0.62;12.37;10.97;;;19.00;22.40;;;;;;2260440;61;20396;-59
2023/01/26 08:24:57;0.00;0.00;0.62;0.00;0.00;0.62;12.47;10.07;;;19.00;22.40;;;;;;2259570;61;20392;-59
2023/01/26 08:27:42;0.00;0.00;0.62;0.00;0.00;0.62;12.77;10.40;;;19.00;22.40;;;;;;2258523;61;20365;-61
2023/01/26 08:30:27;0.00;0.00;0.62;0.00;0.00;0.62;12.07;10.77;;;19.00;22.50;;;;;;2259799;61;20383;-60
2023/01/26 08:33:12;0.00;0.00;0.62;0.00;0.00;0.62;11.37;9.50;;;19.00;22.50;;;;;;2259473;61;20507;-62
2023/01/26 08:36:01;0.00;0.00;0.62;0.00;0.00;0.62;13.70;10.57;;;19.00;22.50;;;;;;2259745;61;20900;-59
2023/01/26 08:38:45;0.00;0.00;0.62;0.00;0.00;0.62;14.07;11.27;;;19.00;22.50;;;;;;2259770;61;20361;-61
2023/01/26 08:41:31;0.00;0.00;0.62;0.00;0.00;0.62;11.30;9.60;;;18.90;22.40;;;;;;2261021;61;20412;-63
2023/01/26 08:44:16;0.00;0.00;0.62;0.00;0.00;0.62;13.40;11.33;;;18.90;22.50;;;;;;2260294;61;20448;-59
2023/01/26 08:47:01;0.00;0.00;0.62;0.00;0.00;0.62;13.57;11.10;;;18.90;22.50;;;;;;2255716;61;20364;-63
2023/01/26 08:49:48;0.00;0.00;0.62;0.00;0.00;0.62;12.70;10.53;;;18.90;22.60;;;;;;2259469;61;20875;-66
2023/01/26 08:52:32;0.00;0.00;0.62;0.00;0.00;0.62;13.03;10.07;;;18.90;22.60;;;;;;2259757;61;20423;-63
2023/01/26 08:55:17;0.00;0.00;0.62;0.00;0.00;0.62;12.50;10.23;;;18.90;22.70;;;;;;2258906;61;20806;-62
2023/01/26 08:58:02;0.00;0.00;0.62;0.00;0.00;0.62;11.73;9.80;;;18.90;22.80;;;;;;2259165;61;20365;-67
2023/01/26 09:00:47;0.00;0.00;0.62;0.00;0.00;0.62;12.77;10.43;;;18.90;22.80;;;;;;2259754;61;20384;-66
2023/01/26 09:03:33;0.00;0.00;0.62;0.00;0.00;0.62;11.90;10.23;;;18.90;22.80;;;;;;2256463;61;20396;-63
2023/01/26 09:06:20;0.00;0.00;0.62;0.00;0.00;0.62;13.20;10.00;;;18.90;22.80;;;;;;2259685;61;20975;-65
2023/01/26 09:09:04;0.00;0.00;0.62;0.00;0.00;0.62;11.00;9.67;;;18.90;22.90;;;;;;2253039;61;20416;-66
2023/01/26 09:11:49;0.00;0.00;0.62;0.00;0.00;0.62;10.57;9.40;;;18.90;23.40;;;;;;2259398;61;20432;-67
2023/01/26 09:14:34;0.00;0.00;0.62;0.00;0.00;0.62;12.23;10.37;;;18.90;22.90;;;;;;2309306;58;20392;-64
2023/01/26 09:17:18;0.00;0.00;0.62;0.00;0.00;0.62;12.03;10.30;;;18.90;22.90;;;;;;2258810;61;20384;-63
2023/01/26 09:20:05;0.00;0.00;0.62;0.00;0.00;0.62;11.07;9.10;;;18.90;23.00;;;;;;2378245;40;20411;-68
2023/01/26 09:22:51;0.00;0.00;0.62;0.00;0.00;0.62;14.83;10.77;;;18.90;23.00;;;;;;2263196;61;20506;-64
2023/01/26 09:25:36;0.00;0.00;0.62;0.00;0.00;0.62;12.30;10.97;;;18.90;23.00;;;;;;2263261;61;20364;-65
2023/01/26 09:28:21;0.00;0.00;0.62;0.00;0.00;0.62;10.40;9.20;;;18.90;23.00;;;;;;2262547;61;20913;-60
2023/01/26 09:31:09;0.00;0.00;0.62;0.00;0.00;0.62;13.07;10.87;;;18.90;23.00;;;;;;2263506;61;20372;-64
2023/01/26 09:33:54;0.00;0.00;0.62;0.00;0.00;0.62;13.33;9.60;;;18.90;22.90;;;;;;2263297;61;20403;-61
2023/01/26 09:36:38;0.00;0.00;0.62;0.00;0.00;0.62;10.20;9.10;;;18.90;22.90;;;;;;2263291;61;20454;-64
2023/01/26 09:39:24;0.00;0.00;0.62;0.00;0.00;0.62;12.30;9.80;;;18.90;23.00;;;;;;2263487;61;20376;-62
2023/01/26 09:42:31;0.00;0.00;0.62;0.00;0.00;0.62;12.27;9.60;;;18.90;22.90;;;;;;2263444;61;20372;-59
2023/01/26 09:45:25;0.00;0.00;0.62;0.00;0.00;0.62;10.90;9.20;;;18.90;22.90;;;;;;2259960;61;20359;-61
2023/01/26 09:48:29;0.00;0.00;0.62;0.00;0.00;0.62;11.27;9.30;;;18.90;22.90;;;;;;2263419;61;20360;-62
2023/01/26 09:51:19;0.00;0.00;0.62;0.00;0.00;0.62;13.03;10.83;;;18.90;22.80;;;;;;2263601;61;20410;-58
2023/01/26 09:54:20;0.00;0.00;0.62;0.00;0.00;0.62;10.43;8.30;;;18.90;22.80;;;;;;2260972;61;20352;-61
2023/01/26 09:57:13;0.00;0.00;0.62;0.00;0.00;0.62;10.50;9.40;;;18.90;22.90;;;;;;2262575;61;20418;-59
2023/01/26 10:00:04;0.00;0.00;0.62;0.00;0.00;0.62;12.17;10.77;;;18.90;23.00;;;;;;2263201;61;20479;-59
2023/01/26 10:03:10;0.00;0.00;0.62;0.00;0.00;0.62;11.23;9.40;;;18.90;23.00;;;;;;2263979;61;20392;-59
2023/01/26 10:06:06;0.00;0.00;0.62;0.00;0.00;0.62;10.07;9.07;;;18.90;23.00;;;;;;2263842;61;20407;-61
2023/01/26 10:09:15;0.00;0.00;0.62;0.00;0.00;0.62;9.50;8.40;;;18.90;23.00;;;;;;2263859;61;20932;-56
2023/01/26 10:12:03;0.00;0.00;0.62;0.00;0.00;0.62;10.80;8.40;;;18.90;23.00;;;;;;2263759;61;20368;-61
2023/01/26 10:14:57;0.00;0.00;0.62;0.00;0.00;0.62;12.77;9.70;;;19.00;23.00;;;;;;2264093;61;20367;-56
2023/01/26 10:17:45;0.00;0.00;0.62;0.00;0.00;0.62;10.37;8.47;;;18.90;22.90;;;;;;2263971;61;20889;-58
2023/01/26 10:20:34;0.00;0.00;0.62;0.00;0.00;0.62;10.10;8.50;;;19.00;23.00;;;;;;2264494;61;20419;-55
2023/01/26 10:23:23;0.00;0.00;0.62;0.00;0.00;0.62;9.23;8.23;;;19.00;23.60;;;;;;2264605;61;20371;-57
2023/01/26 10:26:13;0.00;0.00;0.62;0.00;0.00;0.62;10.63;8.80;;;19.00;23.00;;;;;;2263860;61;20426;-57
2023/01/26 10:28:59;0.00;0.00;0.62;0.00;0.00;0.62;11.40;8.50;;;19.00;23.00;;;;;;2263834;61;20801;-61
2023/01/26 10:31:45;0.00;0.00;0.62;0.00;0.00;0.62;9.77;8.77;;;19.00;23.00;;;;;;2264292;61;20363;-58
2023/01/26 10:34:31;0.00;0.00;0.62;0.00;0.00;0.62;10.07;8.20;;;19.00;23.00;;;;;;2263668;61;20372;-55
2023/01/26 10:37:21;0.00;0.00;0.62;0.00;0.00;0.62;9.60;8.60;;;19.00;23.00;;;;;;2263266;61;20408;-60
2023/01/26 10:40:08;0.00;0.00;0.62;0.00;0.00;0.62;10.00;8.70;;;19.00;23.00;;;;;;2263838;61;20527;-62
2023/01/26 10:42:56;0.00;0.00;0.62;0.00;0.00;0.62;9.17;8.20;;;19.00;22.90;;;;;;2264158;61;20363;-63
2023/01/26 10:45:45;0.00;0.00;0.62;0.00;0.00;0.62;11.23;10.13;;;19.00;23.00;;;;;;2263879;61;20368;-63
2023/01/26 10:48:33;0.00;0.00;0.62;0.00;0.00;0.62;11.10;9.27;;;19.00;22.90;;;;;;2263417;61;20360;-62
2023/01/26 10:51:25;0.00;0.00;0.62;0.00;0.00;0.62;9.03;8.07;;;19.00;22.90;;;;;;2260608;61;20414;-63
2023/01/26 10:54:22;0.00;0.00;0.62;0.00;0.00;0.62;9.77;7.97;;;19.00;22.90;;;;;;2264110;61;20913;-59
2023/01/26 10:57:27;0.00;0.00;0.62;0.00;0.00;0.62;10.20;8.73;;;19.00;22.90;;;;;;2263791;61;20368;-56
2023/01/26 11:00:24;0.00;0.00;0.62;0.00;0.00;0.62;8.90;7.20;;;19.00;22.90;;;;;;2264281;61;20375;-56
2023/01/26 11:03:17;0.00;0.00;0.62;0.00;0.00;0.62;9.30;7.93;;;19.00;23.10;;;;;;2263848;61;20376;-59
2023/01/26 11:06:14;0.00;0.00;0.62;0.00;0.00;0.62;9.00;7.90;;;19.00;23.20;;;;;;2264075;61;20815;-61
2023/01/26 11:09:15;0.00;0.00;0.62;0.00;0.00;0.62;7.77;6.97;;;19.00;23.20;;;;;;2260989;61;20388;-63
2023/01/26 11:12:03;0.00;0.00;0.62;0.00;0.00;0.62;9.40;7.80;;;19.00;23.20;;;;;;2264320;61;20963;-63
2023/01/26 11:15:01;0.00;0.00;0.62;0.00;0.00;0.62;9.03;6.83;;;19.10;23.30;;;;;;2260363;61;20506;-60
2023/01/26 11:17:58;0.00;0.00;0.62;0.00;0.00;0.62;7.73;6.43;;;19.10;23.30;;;;;;2263298;61;20399;-61
2023/01/26 11:20:57;0.00;0.00;0.62;0.00;0.00;0.62;7.57;6.77;;;19.10;23.30;;;;;;2264000;61;20383;-64
2023/01/26 11:24:01;0.00;0.00;0.62;0.00;0.00;0.62;7.87;6.73;;;19.10;23.40;;;;;;2264030;61;20376;-61
2023/01/26 11:27:17;0.00;0.00;0.62;0.00;0.00;0.62;7.53;6.33;;;19.10;23.40;;;;;;2264045;61;20356;-61
2023/01/26 11:30:37;0.00;0.00;0.62;0.00;0.00;0.62;8.97;7.27;;;19.10;23.40;;;;;;2260856;61;20828;-59
2023/01/26 11:33:32;0.00;0.00;0.62;0.00;0.00;0.62;9.73;7.80;;;19.10;23.40;;;;;;2257713;61;20372;-58
2023/01/26 11:36:33;0.00;0.00;0.62;0.00;0.00;0.62;8.70;7.17;;;19.10;23.50;;;;;;2264108;61;20790;-60
2023/01/26 11:39:27;0.00;0.00;0.62;0.00;0.00;0.62;8.77;7.60;;;19.10;23.50;;;;;;2263765;61;20415;-61
2023/01/26 11:42:28;0.00;0.00;0.62;0.00;0.00;0.62;7.00;6.00;;;19.20;23.60;;;;;;2264345;61;20368;-62
2023/01/26 11:45:23;0.00;0.00;0.62;0.00;0.00;0.62;10.60;7.60;;;19.20;23.60;;;;;;2260813;61;20414;-63
2023/01/26 11:48:20;0.00;0.00;0.62;0.00;0.00;0.62;9.10;7.13;;;19.20;23.60;;;;;;2263452;61;20468;-62